Antares — DFJQ — position and weather

sailwx.info

Track history (hours):
 
Tides and Currents Weather Stations Pressure Air Temp Water Temp Dewpoint Dewpoint Depression Visibility Wind Speed Wind Dir Waves Ship Positions

Antares

Last reported at 2017-May-23 00:30 UTC. Time now 2017-May-24 00:30 UTC.
Position N 56°41' E 011°47'.

Length 79 m; draft 4.8 m.

Type: Ship. MMSI: 218777000.

Date/timePositionNaut miles runAvg speedWind from/ knotsBaromVisibWave heightAir tempDewpointWater temp
2017-May-23 00:30N 56°41' E 011°47'6 9.9
2017-May-22 23:54N 56°46' E 011°52'510.3
2017-May-22 23:26N 56°51' E 011°49'1110.2
2017-May-22 22:18N 57°01' E 011°42'610.0
2017-May-22 21:43N 57°07' E 011°38'3 9.9
2017-May-22 21:26N 57°10' E 011°37'410.0
2017-May-22 21:00N 57°14' E 011°33'510.5
2017-May-22 20:30N 57°18' E 011°30'510.5
2017-May-22 20:00N 57°23' E 011°26'5 9.9
2017-May-22 19:30N 57°28' E 011°23'5 9.5
2017-May-22 19:00N 57°30' E 011°15'5 9.7
2017-May-22 18:30N 57°33' E 011°07'510.3
2017-May-22 18:00N 57°34' E 010°58'510.3
2017-May-22 17:30N 57°36' E 010°49'510.3
2017-May-22 17:00N 57°38' E 010°40'2 4.4
2017-May-22 16:30N 57°39' E 010°37'0 0.0
2017-May-22 15:58N 57°39' E 010°37'0 0.0
2017-May-22 15:28N 57°39' E 010°37'0 0.0
2017-May-22 14:49N 57°39' E 010°37'0 0.1
2017-May-22 14:00N 57°39' E 010°37'1 2.0
2017-May-22 13:30N 57°40' E 010°38'0 0.0
2017-May-22 13:00N 57°40' E 010°38'0 0.0
2017-May-22 12:30N 57°40' E 010°38'0 0.0
2017-May-22 12:00N 57°40' E 010°38'0 0.1
2017-May-22 11:28N 57°40' E 010°38'0 0.0
2017-May-22 10:49N 57°40' E 010°38'0 0.0
2017-May-22 10:13N 57°40' E 010°38'0 0.0
2017-May-22 09:58N 57°40' E 010°38'0 0.0
2017-May-22 09:28N 57°40' E 010°38'0 0.0
2017-May-22 08:58N 57°40' E 010°38'1 1.4
2017-May-22 08:30N 57°39' E 010°38'0 0.3
2017-May-22 07:55N 57°39' E 010°38'0 0.0
2017-May-22 07:28N 57°39' E 010°38'0 0.0
2017-May-22 06:52N 57°39' E 010°38'0 0.0
2017-May-22 06:04N 57°39' E 010°38'0 0.1
2017-May-22 06:00N 57°39' E 010°38'0 0.7
2017-May-22 05:18N 57°40' E 010°38'0 0.0
2017-May-22 04:53N 57°40' E 010°38'0 0.0
2017-May-22 04:24N 57°40' E 010°38'0 0.0
2017-May-22 03:59N 57°40' E 010°38'0 0.0
2017-May-22 03:24N 57°40' E 010°38'0 0.0
2017-May-22 03:00N 57°40' E 010°38'1 1.1
2017-May-22 02:30N 57°40' E 010°37'0 0.0
2017-May-22 02:00N 57°40' E 010°37'0 0.0
2017-May-22 01:30N 57°40' E 010°37'0 0.0
2017-May-22 00:51N 57°40' E 010°37'0 0.0
2017-May-22 00:30N 57°40' E 010°37'0 0.0
2017-May-22 00:00N 57°40' E 010°37'0 0.0
2017-May-21 23:18N 57°40' E 010°37'0 0.0
2017-May-21 21:45N 57°40' E 010°37'0 0.0
2017-May-21 21:15N 57°40' E 010°37'0 0.0
2017-May-21 20:59N 57°40' E 010°37'0 1.0
2017-May-21 20:30N 57°40' E 010°38'2 4.2
2017-May-21 19:59N 57°41' E 010°41'1 1.9
2017-May-21 19:30N 57°41' E 010°43'0 0.0
2017-May-21 18:54N 57°41' E 010°43'0 0.0
2017-May-21 18:27N 57°41' E 010°43'0 0.0
2017-May-21 18:00N 57°41' E 010°43'0 0.4
2017-May-21 17:30N 57°41' E 010°43'0 0.5
2017-May-21 16:56N 57°41' E 010°43'0 0.0
2017-May-21 16:26N 57°41' E 010°43'0 0.0
2017-May-21 15:38N 57°41' E 010°43'0 0.0
2017-May-21 15:08N 57°41' E 010°43'0 0.0
2017-May-21 14:59N 57°41' E 010°43'0 0.0
2017-May-21 13:59N 57°41' E 010°43'0 0.0
2017-May-21 13:11N 57°41' E 010°43'0 0.0
2017-May-21 12:56N 57°41' E 010°43'0 0.0
2017-May-21 12:23N 57°41' E 010°43'0 0.0
2017-May-21 11:50N 57°41' E 010°43'0 0.0
2017-May-21 11:26N 57°41' E 010°43'0 0.0
2017-May-21 10:53N 57°41' E 010°43'0 0.1
2017-May-21 10:23N 57°41' E 010°43'0 0.8
2017-May-21 09:53N 57°41' E 010°44'0 0.0
2017-May-21 09:29N 57°41' E 010°44'0 0.0
2017-May-21 07:49N 57°41' E 010°44'0 0.1
2017-May-21 07:30N 57°41' E 010°44'0 0.5
2017-May-21 07:00N 57°41' E 010°43'1 2.5
2017-May-21 06:29N 57°40' E 010°42'0 0.0
2017-May-21 05:53N 57°40' E 010°42'0 0.0
2017-May-21 05:29N 57°40' E 010°42'0 0.0
2017-May-21 04:59N 57°40' E 010°42'0 0.0
2017-May-21 04:29N 57°40' E 010°42'0 0.0
2017-May-21 03:50N 57°40' E 010°42'0 0.0
2017-May-21 03:29N 57°40' E 010°42'0 0.0
2017-May-21 02:59N 57°40' E 010°42'0 0.0
2017-May-21 02:29N 57°40' E 010°42'0 0.1
2017-May-21 02:00N 57°40' E 010°42'1 2.4
2017-May-21 01:30N 57°41' E 010°41'3 5.2
2017-May-21 01:01N 57°42' E 010°37'1 1.1
2017-May-21 00:14N 57°43' E 010°35'0 0.0
2017-May-20 23:56N 57°43' E 010°35'0 0.0
2017-May-20 23:29N 57°43' E 010°35'0 0.0
2017-May-20 22:59N 57°43' E 010°35'0 0.0
2017-May-20 22:20N 57°43' E 010°35'0 0.0
2017-May-20 21:59N 57°43' E 010°35'0 0.0
2017-May-20 21:29N 57°43' E 010°35'0 0.0
2017-May-20 20:59N 57°43' E 010°35'0 0.0
2017-May-20 20:29N 57°43' E 010°35'0 0.0
2017-May-20 19:47N 57°43' E 010°35'0 0.6
2017-May-20 19:30N 57°43' E 010°36'2 4.1
2017-May-20 18:59N 57°42' E 010°39'1 1.7
2017-May-20 18:30N 57°42' E 010°41'0 0.0
2017-May-20 17:58N 57°42' E 010°41'0 0.0
2017-May-20 17:25N 57°42' E 010°41'0 0.0
2017-May-20 16:55N 57°42' E 010°41'0 0.0
2017-May-20 16:13N 57°42' E 010°41'0 0.0
2017-May-20 15:58N 57°42' E 010°41'0 0.0
2017-May-20 15:28N 57°42' E 010°41'0 0.0
2017-May-20 15:00N 57°42' E 010°41'0 0.5
2017-May-20 14:30N 57°42' E 010°41'2 2.0
2017-May-20 13:30N 57°41' E 010°38'0 0.0
2017-May-20 11:43N 57°41' E 010°38'0 0.1
2017-May-20 09:16N 57°41' E 010°38'0 0.0
2017-May-20 08:34N 57°41' E 010°38'0 0.0
2017-May-20 08:16N 57°41' E 010°38'0 0.0
2017-May-20 07:55N 57°41' E 010°38'0 0.0
2017-May-20 07:04N 57°41' E 010°38'0 0.0
2017-May-20 06:37N 57°41' E 010°37'0 0.0
2017-May-20 06:25N 57°41' E 010°37'0 0.0
2017-May-20 05:43N 57°41' E 010°38'0 0.0
2017-May-20 05:13N 57°41' E 010°37'0 0.0
2017-May-20 04:40N 57°41' E 010°37'0 0.0
2017-May-20 04:25N 57°41' E 010°37'0 0.0
2017-May-20 03:55N 57°41' E 010°37'0 0.0
2017-May-20 00:16N 57°41' E 010°37'0 0.0
2017-May-19 23:58N 57°41' E 010°37'0 0.0
2017-May-19 23:28N 57°41' E 010°37'0 0.0
2017-May-19 23:00N 57°41' E 010°37'0 0.1
2017-May-19 22:30N 57°41' E 010°37'0 0.6
2017-May-19 22:00N 57°41' E 010°37'0 0.0
2017-May-19 21:09N 57°41' E 010°37'0 0.0
2017-May-19 20:51N 57°41' E 010°37'0 0.0
2017-May-19 19:48N 57°41' E 010°37'0 0.0
2017-May-19 19:09N 57°41' E 010°37'0 0.0
2017-May-19 19:00N 57°41' E 010°37'0 0.0
2017-May-19 18:30N 57°41' E 010°37'0 0.0
2017-May-19 16:48N 57°41' E 010°37'0 0.0
2017-May-19 16:24N 57°41' E 010°37'0 0.1
2017-May-19 15:59N 57°41' E 010°37'0 0.6
2017-May-19 15:19N 57°41' E 010°38'0 0.0
2017-May-19 13:43N 57°41' E 010°38'0 0.0
2017-May-19 13:25N 57°41' E 010°38'0 0.0
2017-May-19 13:00N 57°41' E 010°38'1 1.7
2017-May-19 12:31N 57°42' E 010°37'1 2.5
2017-May-19 12:00N 57°43' E 010°35'0 0.0
2017-May-19 11:27N 57°43' E 010°35'0 0.0
2017-May-19 11:00N 57°43' E 010°35'0 0.0
2017-May-19 10:18N 57°43' E 010°35'0 0.0
2017-May-19 10:00N 57°43' E 010°35'0 0.0
2017-May-19 08:33N 57°43' E 010°35'0 0.0
2017-May-19 08:31N 57°43' E 010°35'0 0.0
2017-May-19 07:48N 57°43' E 010°35'0 0.0
2017-May-19 07:21N 57°43' E 010°35'0 0.0
2017-May-19 06:57N 57°43' E 010°35'0 0.0
2017-May-19 06:30N 57°43' E 010°35'0 0.0
2017-May-19 05:45N 57°43' E 010°35'0 0.0
2017-May-19 05:30N 57°43' E 010°35'0 0.0
2017-May-19 04:57N 57°43' E 010°35'0 0.0
2017-May-19 04:30N 57°43' E 010°35'0 0.0
2017-May-19 04:00N 57°43' E 010°35'0 0.0
2017-May-19 03:12N 57°43' E 010°35'0 0.0
2017-May-19 02:45N 57°43' E 010°35'0 0.0
2017-May-19 02:30N 57°43' E 010°35'0 0.0
2017-May-19 01:54N 57°43' E 010°35'0 0.0
2017-May-19 01:09N 57°43' E 010°35'0 0.0
2017-May-19 00:54N 57°43' E 010°35'0 0.0
2017-May-19 00:30N 57°43' E 010°35'0 0.0
2017-May-18 23:57N 57°43' E 010°35'0 0.0
2017-May-18 23:30N 57°43' E 010°35'0 0.0
2017-May-18 22:42N 57°43' E 010°35'0 0.0
2017-May-18 22:24N 57°43' E 010°35'0 0.0
2017-May-18 21:54N 57°43' E 010°35'0 0.0
2017-May-18 21:30N 57°43' E 010°35'0 0.0
2017-May-18 21:00N 57°43' E 010°35'0 0.5
2017-May-18 20:30N 57°43' E 010°36'3 5.2
2017-May-18 20:00N 57°41' E 010°40'0 0.0
2017-May-18 13:54N 57°42' E 010°40'0 0.0
2017-May-18 13:30N 57°42' E 010°40'0 0.0
2017-May-18 12:36N 57°41' E 010°40'0 0.0
2017-May-18 12:12N 57°41' E 010°40'0 0.1
2017-May-18 12:00N 57°41' E 010°40'0 0.7
2017-May-18 11:24N 57°41' E 010°41'0 0.1
2017-May-18 10:30N 57°41' E 010°41'0 0.0
2017-May-18 09:57N 57°41' E 010°41'0 0.0
2017-May-18 09:30N 57°41' E 010°41'0 0.0
2017-May-18 08:54N 57°41' E 010°41'0 0.0
2017-May-18 08:24N 57°41' E 010°41'0 0.0
2017-May-18 07:36N 57°41' E 010°41'0 0.0
2017-May-18 07:30N 57°41' E 010°41'0 0.0
2017-May-18 07:00N 57°41' E 010°41'0 0.0
2017-May-18 06:29N 57°41' E 010°41'1 1.2
2017-May-18 06:00N 57°42' E 010°40'0 0.5
2017-May-18 05:30N 57°42' E 010°39'0 0.0
2017-May-18 04:42N 57°42' E 010°39'0 0.0
2017-May-18 04:30N 57°42' E 010°39'0 0.0
2017-May-18 04:00N 57°42' E 010°39'0 0.0
2017-May-18 03:30N 57°42' E 010°39'0 0.0
2017-May-18 02:50N 57°42' E 010°39'0 0.5
2017-May-18 02:31N 57°42' E 010°39'1 1.5
2017-May-18 01:58N 57°42' E 010°38'0 0.2
2017-May-18 01:10N 57°42' E 010°38'0 0.9
2017-May-18 00:59N 57°42' E 010°38'0 0.0
2017-May-17 23:56N 57°42' E 010°38'0 0.0
2017-May-17 23:29N 57°42' E 010°38'0 0.0
2017-May-17 22:56N 57°42' E 010°38'0 0.0
2017-May-17 22:28N 57°42' E 010°38'0 0.1
2017-May-17 22:00N 57°42' E 010°38'0 0.9
2017-May-17 21:30N 57°42' E 010°37'0 0.1
2017-May-17 20:58N 57°42' E 010°37'0 0.1
2017-May-17 20:13N 57°42' E 010°37'0 0.2
2017-May-17 19:52N 57°42' E 010°37'0 0.6
2017-May-17 19:08N 57°42' E 010°38'0 0.1
2017-May-17 18:53N 57°42' E 010°38'0 0.0
2017-May-17 18:26N 57°42' E 010°38'0 0.0
2017-May-17 17:53N 57°42' E 010°38'0 0.0
2017-May-17 17:29N 57°42' E 010°38'0 0.0
2017-May-17 16:59N 57°42' E 010°38'0 0.0
2017-May-17 16:30N 57°42' E 010°38'1 1.0
2017-May-17 16:00N 57°42' E 010°37'0 0.1
2017-May-17 15:01N 57°42' E 010°37'0 0.0
2017-May-17 14:52N 57°42' E 010°37'0 0.0
2017-May-17 14:28N 57°42' E 010°37'0 0.0
2017-May-17 13:28N 57°42' E 010°37'0 0.0
2017-May-17 12:55N 57°42' E 010°37'0 0.0
2017-May-17 12:22N 57°42' E 010°37'0 0.0
2017-May-17 11:58N 57°42' E 010°37'0 0.0
2017-May-17 11:28N 57°42' E 010°37'0 0.0
2017-May-17 10:55N 57°42' E 010°37'0 0.0
2017-May-17 10:19N 57°42' E 010°37'0 0.0
2017-May-17 09:58N 57°42' E 010°37'0 0.0
2017-May-17 09:25N 57°42' E 010°37'0 0.0
2017-May-17 08:55N 57°42' E 010°37'0 0.0
2017-May-17 08:19N 57°42' E 010°37'0 0.0
2017-May-17 07:58N 57°42' E 010°37'0 0.0
2017-May-17 07:22N 57°42' E 010°37'0 0.0
2017-May-17 06:52N 57°42' E 010°37'0 0.0
2017-May-17 06:28N 57°42' E 010°37'0 0.0
2017-May-17 05:40N 57°42' E 010°37'0 0.0
2017-May-17 05:28N 57°42' E 010°37'0 0.0
2017-May-17 04:58N 57°42' E 010°37'0 0.0
2017-May-17 04:22N 57°42' E 010°37'0 0.0
2017-May-17 03:58N 57°42' E 010°37'0 0.0
2017-May-17 03:28N 57°42' E 010°37'0 0.0
2017-May-17 02:52N 57°42' E 010°37'0 0.0
2017-May-17 02:25N 57°42' E 010°37'0 0.0
2017-May-17 01:07N 57°42' E 010°37'0 0.0
2017-May-17 00:58N 57°42' E 010°37'0 0.0
2017-May-17 00:16N 57°42' E 010°37'0 0.0
2017-May-16 23:58N 57°42' E 010°37'0 0.0
2017-May-16 23:28N 57°42' E 010°37'0 0.0
2017-May-16 22:49N 57°42' E 010°37'0 0.0
2017-May-16 22:28N 57°42' E 010°37'0 0.0
2017-May-16 21:58N 57°42' E 010°37'0 0.0
2017-May-16 21:28N 57°42' E 010°37'0 0.0
2017-May-16 20:58N 57°42' E 010°37'0 0.0
2017-May-16 20:28N 57°42' E 010°37'0 0.0
2017-May-16 19:58N 57°42' E 010°37'0 0.0
2017-May-16 19:25N 57°42' E 010°37'0 0.0
2017-May-16 18:58N 57°42' E 010°37'0 0.0
2017-May-16 18:13N 57°42' E 010°37'0 0.0
2017-May-16 17:58N 57°42' E 010°37'0 0.0
2017-May-16 17:28N 57°42' E 010°37'0 0.0
2017-May-16 16:55N 57°42' E 010°37'0 0.0
2017-May-16 16:16N 57°42' E 010°37'0 0.0
2017-May-16 15:58N 57°42' E 010°37'0 0.0
2017-May-16 15:25N 57°42' E 010°37'0 0.0
2017-May-16 14:58N 57°42' E 010°37'0 0.0
2017-May-16 13:58N 57°42' E 010°37'0 0.0
2017-May-16 13:25N 57°42' E 010°37'0 0.0
2017-May-16 12:46N 57°42' E 010°37'0 0.0
2017-May-16 12:28N 57°42' E 010°37'0 0.0
2017-May-16 11:52N 57°42' E 010°37'0 0.0
2017-May-16 11:25N 57°42' E 010°37'0 0.0
2017-May-16 10:49N 57°42' E 010°37'0 0.0
2017-May-16 10:04N 57°42' E 010°37'0 0.0
2017-May-16 09:58N 57°42' E 010°37'0 0.0
2017-May-16 09:22N 57°42' E 010°37'0 0.0
2017-May-16 08:58N 57°42' E 010°37'0 0.0
2017-May-16 08:22N 57°42' E 010°37'0 0.0
2017-May-16 07:58N 57°42' E 010°37'0 0.0
2017-May-16 07:04N 57°42' E 010°37'0 0.0
2017-May-16 06:43N 57°42' E 010°37'0 0.0
2017-May-16 06:25N 57°42' E 010°37'0 0.0
2017-May-16 05:52N 57°42' E 010°37'0 0.0
2017-May-16 05:19N 57°42' E 010°37'0 0.0
2017-May-16 04:58N 57°42' E 010°37'0 0.0
2017-May-16 04:16N 57°42' E 010°37'0 0.0
2017-May-16 03:55N 57°42' E 010°37'0 0.0
2017-May-16 03:04N 57°42' E 010°37'0 0.0
2017-May-16 02:13N 57°42' E 010°37'0 0.0
2017-May-16 01:55N 57°42' E 010°37'0 0.0
2017-May-16 01:07N 57°42' E 010°37'0 0.0
2017-May-16 00:37N 57°42' E 010°37'0 0.0
2017-May-15 23:49N 57°42' E 010°37'0 0.0
2017-May-15 23:25N 57°42' E 010°37'0 0.0
2017-May-15 22:58N 57°42' E 010°37'0 0.0
2017-May-15 21:52N 57°42' E 010°37'0 0.0
2017-May-15 20:52N 57°42' E 010°37'0 0.0
2017-May-15 20:28N 57°42' E 010°37'0 0.0
2017-May-15 18:34N 57°42' E 010°37'0 0.0
2017-May-15 18:25N 57°42' E 010°37'0 0.0
2017-May-15 17:52N 57°42' E 010°37'0 0.0
2017-May-15 17:22N 57°42' E 010°37'0 0.0
2017-May-15 16:55N 57°42' E 010°37'0 0.0
2017-May-15 16:16N 57°42' E 010°37'0 0.0
2017-May-15 15:55N 57°42' E 010°37'0 0.0
2017-May-15 15:16N 57°42' E 010°37'0 0.0
2017-May-15 14:43N 57°42' E 010°37'0 0.0
2017-May-15 13:40N 57°42' E 010°37'0 0.0
2017-May-15 13:25N 57°42' E 010°37'0 0.0
2017-May-15 12:40N 57°42' E 010°37'0 0.0
2017-May-15 12:04N 57°42' E 010°37'0 0.0
2017-May-15 11:52N 57°42' E 010°37'0 0.0
2017-May-15 11:28N 57°42' E 010°37'0 0.0
2017-May-15 10:58N 57°42' E 010°37'0 0.0
2017-May-15 10:16N 57°42' E 010°37'0 0.0
2017-May-15 09:49N 57°42' E 010°37'0 0.0
2017-May-15 09:22N 57°42' E 010°37'0 0.2
2017-May-15 09:01N 57°42' E 010°37'4 8.1
2017-May-15 08:30N 57°44' E 010°43'4 8.4
2017-May-15 08:00N 57°48' E 010°46'510.3
2017-May-15 07:30N 57°53' E 010°42'510.4
2017-May-15 07:00N 57°57' E 010°38'510.3
2017-May-15 06:29N 58°02' E 010°34'510.2
2017-May-15 06:00N 58°07' E 010°31'510.3
2017-May-15 05:30N 58°12' E 010°27'510.4
2017-May-15 05:00N 58°16' E 010°22'510.2
2017-May-15 04:30N 58°21' E 010°17'510.2
2017-May-15 04:00N 58°25' E 010°13'510.4
2017-May-15 03:30N 58°30' E 010°09'510.4
2017-May-15 03:00N 58°35' E 010°04'510.5
2017-May-15 02:30N 58°39' E 010°00'510.5
2017-May-15 02:00N 58°44' E 009°56'510.4
2017-May-15 01:30N 58°49' E 009°53'510.6
2017-May-15 01:00N 58°54' E 009°50'2 4.0
2017-May-15 00:30N 58°56' E 009°52'510.4
2017-May-15 00:00N 58°56' E 010°02'4 8.8
2017-May-14 23:30N 59°01' E 010°03'2 3.8
2017-May-14 22:59N 59°02' E 010°03'0 0.0
2017-May-14 22:29N 59°02' E 010°03'0 0.0
2017-May-14 21:59N 59°02' E 010°03'0 0.0
2017-May-14 21:29N 59°02' E 010°03'0 0.0
2017-May-14 20:59N 59°02' E 010°03'0 0.0
2017-May-14 20:26N 59°02' E 010°03'0 0.0
2017-May-14 19:59N 59°02' E 010°03'0 0.0
2017-May-14 19:29N 59°02' E 010°03'0 0.0
2017-May-14 18:59N 59°02' E 010°03'0 0.0
2017-May-14 18:29N 59°02' E 010°03'0 0.0
2017-May-14 17:59N 59°02' E 010°03'0 0.0
2017-May-14 17:29N 59°02' E 010°03'0 0.0
2017-May-14 16:59N 59°02' E 010°03'0 0.0
2017-May-14 16:29N 59°02' E 010°03'0 0.0
2017-May-14 15:59N 59°02' E 010°03'0 0.2
2017-May-14 15:30N 59°03' E 010°03'1 1.5
2017-May-14 15:00N 59°02' E 010°02'4 7.5
2017-May-14 14:30N 58°58' E 010°05'7 6.6
2017-May-14 13:31N 58°55' E 009°54'3 6.7
2017-May-14 13:00N 58°56' E 009°48'5 9.5
2017-May-14 12:30N 58°52' E 009°51'5 9.9
2017-May-14 12:00N 58°47' E 009°55'3 6.8
2017-May-14 11:30N 58°44' E 009°58'4 8.0
2017-May-14 11:00N 58°41' E 010°01'5 9.3
2017-May-14 10:30N 58°36' E 010°05'27 9.8
2017-May-14 07:46N 58°12' E 010°26'4 9.9
2017-May-14 07:22N 58°09' E 010°29'410.0
2017-May-14 06:59N 58°05' E 010°33'510.0
2017-May-14 06:29N 58°00' E 010°36'510.3
2017-May-14 06:00N 57°56' E 010°41'510.8
2017-May-14 05:30N 57°51' E 010°45'510.5
2017-May-14 05:00N 57°46' E 010°48'5 9.8
2017-May-14 04:30N 57°43' E 010°42'4 7.3
2017-May-14 04:01N 57°41' E 010°36'0 0.7
2017-May-14 03:30N 57°41' E 010°36'0 0.0
2017-May-14 03:00N 57°41' E 010°36'0 0.0
2017-May-14 02:27N 57°41' E 010°36'0 0.0
2017-May-14 01:57N 57°41' E 010°36'0 0.0
2017-May-14 00:48N 57°41' E 010°36'0 0.0
2017-May-14 00:27N 57°41' E 010°36'0 0.0
2017-May-14 00:00N 57°41' E 010°36'0 0.0
2017-May-13 23:30N 57°41' E 010°36'0 0.0
2017-May-13 23:00N 57°41' E 010°36'0 0.0
2017-May-13 21:51N 57°41' E 010°36'0 0.2
2017-May-13 21:30N 57°41' E 010°36'2 3.1
2017-May-13 21:01N 57°42' E 010°36'1 1.6
2017-May-13 20:30N 57°43' E 010°35'0 0.0
2017-May-13 19:58N 57°43' E 010°35'0 0.0
2017-May-13 19:28N 57°43' E 010°35'0 0.0
2017-May-13 18:43N 57°43' E 010°35'0 0.0
2017-May-13 18:28N 57°43' E 010°35'0 0.0
2017-May-13 17:58N 57°43' E 010°35'0 0.0
2017-May-13 17:16N 57°43' E 010°35'0 0.0
2017-May-13 16:58N 57°43' E 010°35'0 0.0
2017-May-13 16:22N 57°43' E 010°35'0 0.0
2017-May-13 15:52N 57°43' E 010°35'0 0.0
2017-May-13 15:25N 57°43' E 010°35'0 0.0
2017-May-13 14:52N 57°43' E 010°35'0 0.0
2017-May-13 14:22N 57°43' E 010°35'0 0.0
2017-May-13 13:19N 57°43' E 010°35'0 0.0
2017-May-13 12:58N 57°43' E 010°35'0 0.0
2017-May-13 12:10N 57°43' E 010°35'0 0.0
2017-May-13 11:46N 57°43' E 010°35'0 0.0
2017-May-13 11:25N 57°43' E 010°35'0 0.0
2017-May-13 10:52N 57°43' E 010°35'0 0.1
2017-May-13 10:30N 57°43' E 010°36'3 6.8
2017-May-13 10:00N 57°39' E 010°35'1 1.7
2017-May-13 09:27N 57°39' E 010°34'0 0.0
2017-May-13 08:48N 57°39' E 010°34'0 0.0
2017-May-13 08:27N 57°39' E 010°34'0 0.0
2017-May-13 07:48N 57°39' E 010°34'0 0.0
2017-May-13 07:18N 57°39' E 010°34'0 0.0
2017-May-13 06:54N 57°39' E 010°34'0 0.0
2017-May-13 06:21N 57°39' E 010°34'0 0.0
2017-May-13 06:00N 57°39' E 010°34'0 0.0
2017-May-13 05:27N 57°39' E 010°34'0 0.0
2017-May-13 05:00N 57°39' E 010°34'0 0.0
2017-May-13 04:18N 57°39' E 010°34'0 0.0
2017-May-13 04:00N 57°39' E 010°34'0 0.0
2017-May-13 03:30N 57°39' E 010°34'0 0.0
2017-May-13 03:00N 57°39' E 010°34'0 0.0
2017-May-13 02:27N 57°39' E 010°34'0 0.0
2017-May-13 01:45N 57°39' E 010°34'0 0.0
2017-May-13 01:30N 57°39' E 010°34'0 0.0
2017-May-13 00:51N 57°39' E 010°34'  
Track history (hours):
 
Tides and Currents Weather Stations Pressure Air Temp Water Temp Dewpoint Dewpoint Depression Visibility Wind Speed Wind Dir Waves Ship Positions

Antares

Last reported at 2017-May-23 00:30 UTC. Time now 2017-May-24 00:30 UTC.
Position N 56°41' E 011°47'.

Length 79 m; draft 4.8 m.

Type: Ship. MMSI: 218777000.

Date/timePositionNaut miles runAvg speedWind from/ knotsBaromVisibWave heightAir tempDewpointWater temp
2017-May-23 00:30N 56°41' E 011°47'6 9.9
2017-May-22 23:54N 56°46' E 011°52'510.3
2017-May-22 23:26N 56°51' E 011°49'1110.2
2017-May-22 22:18N 57°01' E 011°42'610.0
2017-May-22 21:43N 57°07' E 011°38'3 9.9
2017-May-22 21:26N 57°10' E 011°37'410.0
2017-May-22 21:00N 57°14' E 011°33'510.5
2017-May-22 20:30N 57°18' E 011°30'510.5
2017-May-22 20:00N 57°23' E 011°26'5 9.9
2017-May-22 19:30N 57°28' E 011°23'5 9.5
2017-May-22 19:00N 57°30' E 011°15'5 9.7
2017-May-22 18:30N 57°33' E 011°07'510.3
2017-May-22 18:00N 57°34' E 010°58'510.3
2017-May-22 17:30N 57°36' E 010°49'510.3
2017-May-22 17:00N 57°38' E 010°40'2 4.4
2017-May-22 16:30N 57°39' E 010°37'0 0.0
2017-May-22 15:58N 57°39' E 010°37'0 0.0
2017-May-22 15:28N 57°39' E 010°37'0 0.0
2017-May-22 14:49N 57°39' E 010°37'0 0.1
2017-May-22 14:00N 57°39' E 010°37'1 2.0
2017-May-22 13:30N 57°40' E 010°38'0 0.0
2017-May-22 13:00N 57°40' E 010°38'0 0.0
2017-May-22 12:30N 57°40' E 010°38'0 0.0
2017-May-22 12:00N 57°40' E 010°38'0 0.1
2017-May-22 11:28N 57°40' E 010°38'0 0.0
2017-May-22 10:49N 57°40' E 010°38'0 0.0
2017-May-22 10:13N 57°40' E 010°38'0 0.0
2017-May-22 09:58N 57°40' E 010°38'0 0.0
2017-May-22 09:28N 57°40' E 010°38'0 0.0
2017-May-22 08:58N 57°40' E 010°38'1 1.4
2017-May-22 08:30N 57°39' E 010°38'0 0.3
2017-May-22 07:55N 57°39' E 010°38'0 0.0
2017-May-22 07:28N 57°39' E 010°38'0 0.0
2017-May-22 06:52N 57°39' E 010°38'0 0.0
2017-May-22 06:04N 57°39' E 010°38'0 0.1
2017-May-22 06:00N 57°39' E 010°38'0 0.7
2017-May-22 05:18N 57°40' E 010°38'0 0.0
2017-May-22 04:53N 57°40' E 010°38'0 0.0
2017-May-22 04:24N 57°40' E 010°38'0 0.0
2017-May-22 03:59N 57°40' E 010°38'0 0.0
2017-May-22 03:24N 57°40' E 010°38'0 0.0
2017-May-22 03:00N 57°40' E 010°38'1 1.1
2017-May-22 02:30N 57°40' E 010°37'0 0.0
2017-May-22 02:00N 57°40' E 010°37'0 0.0
2017-May-22 01:30N 57°40' E 010°37'0 0.0
2017-May-22 00:51N 57°40' E 010°37'0 0.0
2017-May-22 00:30N 57°40' E 010°37'0 0.0
2017-May-22 00:00N 57°40' E 010°37'0 0.0
2017-May-21 23:18N 57°40' E 010°37'0 0.0
2017-May-21 21:45N 57°40' E 010°37'0 0.0
2017-May-21 21:15N 57°40' E 010°37'0 0.0
2017-May-21 20:59N 57°40' E 010°37'0 1.0
2017-May-21 20:30N 57°40' E 010°38'2 4.2
2017-May-21 19:59N 57°41' E 010°41'1 1.9
2017-May-21 19:30N 57°41' E 010°43'0 0.0
2017-May-21 18:54N 57°41' E 010°43'0 0.0
2017-May-21 18:27N 57°41' E 010°43'0 0.0
2017-May-21 18:00N 57°41' E 010°43'0 0.4
2017-May-21 17:30N 57°41' E 010°43'0 0.5
2017-May-21 16:56N 57°41' E 010°43'0 0.0
2017-May-21 16:26N 57°41' E 010°43'0 0.0
2017-May-21 15:38N 57°41' E 010°43'0 0.0
2017-May-21 15:08N 57°41' E 010°43'0 0.0
2017-May-21 14:59N 57°41' E 010°43'0 0.0
2017-May-21 13:59N 57°41' E 010°43'0 0.0
2017-May-21 13:11N 57°41' E 010°43'0 0.0
2017-May-21 12:56N 57°41' E 010°43'0 0.0
2017-May-21 12:23N 57°41' E 010°43'0 0.0
2017-May-21 11:50N 57°41' E 010°43'0 0.0
2017-May-21 11:26N 57°41' E 010°43'0 0.0
2017-May-21 10:53N 57°41' E 010°43'0 0.1
2017-May-21 10:23N 57°41' E 010°43'0 0.8
2017-May-21 09:53N 57°41' E 010°44'0 0.0
2017-May-21 09:29N 57°41' E 010°44'0 0.0
2017-May-21 07:49N 57°41' E 010°44'0 0.1
2017-May-21 07:30N 57°41' E 010°44'0 0.5
2017-May-21 07:00N 57°41' E 010°43'1 2.5
2017-May-21 06:29N 57°40' E 010°42'0 0.0
2017-May-21 05:53N 57°40' E 010°42'0 0.0
2017-May-21 05:29N 57°40' E 010°42'0 0.0
2017-May-21 04:59N 57°40' E 010°42'0 0.0
2017-May-21 04:29N 57°40' E 010°42'0 0.0
2017-May-21 03:50N 57°40' E 010°42'0 0.0
2017-May-21 03:29N 57°40' E 010°42'0 0.0
2017-May-21 02:59N 57°40' E 010°42'0 0.0
2017-May-21 02:29N 57°40' E 010°42'0 0.1
2017-May-21 02:00N 57°40' E 010°42'1 2.4
2017-May-21 01:30N 57°41' E 010°41'3 5.2
2017-May-21 01:01N 57°42' E 010°37'1 1.1
2017-May-21 00:14N 57°43' E 010°35'0 0.0
2017-May-20 23:56N 57°43' E 010°35'0 0.0
2017-May-20 23:29N 57°43' E 010°35'0 0.0
2017-May-20 22:59N 57°43' E 010°35'0 0.0
2017-May-20 22:20N 57°43' E 010°35'0 0.0
2017-May-20 21:59N 57°43' E 010°35'0 0.0
2017-May-20 21:29N 57°43' E 010°35'0 0.0
2017-May-20 20:59N 57°43' E 010°35'0 0.0
2017-May-20 20:29N 57°43' E 010°35'0 0.0
2017-May-20 19:47N 57°43' E 010°35'0 0.6
2017-May-20 19:30N 57°43' E 010°36'2 4.1
2017-May-20 18:59N 57°42' E 010°39'1 1.7
2017-May-20 18:30N 57°42' E 010°41'0 0.0
2017-May-20 17:58N 57°42' E 010°41'0 0.0
2017-May-20 17:25N 57°42' E 010°41'0 0.0
2017-May-20 16:55N 57°42' E 010°41'0 0.0
2017-May-20 16:13N 57°42' E 010°41'0 0.0
2017-May-20 15:58N 57°42' E 010°41'0 0.0
2017-May-20 15:28N 57°42' E 010°41'0 0.0
2017-May-20 15:00N 57°42' E 010°41'0 0.5
2017-May-20 14:30N 57°42' E 010°41'2 2.0
2017-May-20 13:30N 57°41' E 010°38'0 0.0
2017-May-20 11:43N 57°41' E 010°38'0 0.1
2017-May-20 09:16N 57°41' E 010°38'0 0.0
2017-May-20 08:34N 57°41' E 010°38'0 0.0
2017-May-20 08:16N 57°41' E 010°38'0 0.0
2017-May-20 07:55N 57°41' E 010°38'0 0.0
2017-May-20 07:04N 57°41' E 010°38'0 0.0
2017-May-20 06:37N 57°41' E 010°37'0 0.0
2017-May-20 06:25N 57°41' E 010°37'0 0.0
2017-May-20 05:43N 57°41' E 010°38'0 0.0
2017-May-20 05:13N 57°41' E 010°37'0 0.0
2017-May-20 04:40N 57°41' E 010°37'0 0.0
2017-May-20 04:25N 57°41' E 010°37'0 0.0
2017-May-20 03:55N 57°41' E 010°37'0 0.0
2017-May-20 00:16N 57°41' E 010°37'0 0.0
2017-May-19 23:58N 57°41' E 010°37'0 0.0
2017-May-19 23:28N 57°41' E 010°37'0 0.0
2017-May-19 23:00N 57°41' E 010°37'0 0.1
2017-May-19 22:30N 57°41' E 010°37'0 0.6
2017-May-19 22:00N 57°41' E 010°37'0 0.0
2017-May-19 21:09N 57°41' E 010°37'0 0.0
2017-May-19 20:51N 57°41' E 010°37'0 0.0
2017-May-19 19:48N 57°41' E 010°37'0 0.0
2017-May-19 19:09N 57°41' E 010°37'0 0.0
2017-May-19 19:00N 57°41' E 010°37'0 0.0
2017-May-19 18:30N 57°41' E 010°37'0 0.0
2017-May-19 16:48N 57°41' E 010°37'0 0.0
2017-May-19 16:24N 57°41' E 010°37'0 0.1
2017-May-19 15:59N 57°41' E 010°37'0 0.6
2017-May-19 15:19N 57°41' E 010°38'0 0.0
2017-May-19 13:43N 57°41' E 010°38'0 0.0
2017-May-19 13:25N 57°41' E 010°38'0 0.0
2017-May-19 13:00N 57°41' E 010°38'1 1.7
2017-May-19 12:31N 57°42' E 010°37'1 2.5
2017-May-19 12:00N 57°43' E 010°35'0 0.0
2017-May-19 11:27N 57°43' E 010°35'0 0.0
2017-May-19 11:00N 57°43' E 010°35'0 0.0
2017-May-19 10:18N 57°43' E 010°35'0 0.0
2017-May-19 10:00N 57°43' E 010°35'0 0.0
2017-May-19 08:33N 57°43' E 010°35'0 0.0
2017-May-19 08:31N 57°43' E 010°35'0 0.0
2017-May-19 07:48N 57°43' E 010°35'0 0.0
2017-May-19 07:21N 57°43' E 010°35'0 0.0
2017-May-19 06:57N 57°43' E 010°35'0 0.0
2017-May-19 06:30N 57°43' E 010°35'0 0.0
2017-May-19 05:45N 57°43' E 010°35'0 0.0
2017-May-19 05:30N 57°43' E 010°35'0 0.0
2017-May-19 04:57N 57°43' E 010°35'0 0.0
2017-May-19 04:30N 57°43' E 010°35'0 0.0
2017-May-19 04:00N 57°43' E 010°35'0 0.0
2017-May-19 03:12N 57°43' E 010°35'0 0.0
2017-May-19 02:45N 57°43' E 010°35'0 0.0
2017-May-19 02:30N 57°43' E 010°35'0 0.0
2017-May-19 01:54N 57°43' E 010°35'0 0.0
2017-May-19 01:09N 57°43' E 010°35'0 0.0
2017-May-19 00:54N 57°43' E 010°35'0 0.0
2017-May-19 00:30N 57°43' E 010°35'0 0.0
2017-May-18 23:57N 57°43' E 010°35'0 0.0
2017-May-18 23:30N 57°43' E 010°35'0 0.0
2017-May-18 22:42N 57°43' E 010°35'0 0.0
2017-May-18 22:24N 57°43' E 010°35'0 0.0
2017-May-18 21:54N 57°43' E 010°35'0 0.0
2017-May-18 21:30N 57°43' E 010°35'0 0.0
2017-May-18 21:00N 57°43' E 010°35'0 0.5
2017-May-18 20:30N 57°43' E 010°36'3 5.2
2017-May-18 20:00N 57°41' E 010°40'0 0.0
2017-May-18 13:54N 57°42' E 010°40'0 0.0
2017-May-18 13:30N 57°42' E 010°40'0 0.0
2017-May-18 12:36N 57°41' E 010°40'0 0.0
2017-May-18 12:12N 57°41' E 010°40'0 0.1
2017-May-18 12:00N 57°41' E 010°40'0 0.7
2017-May-18 11:24N 57°41' E 010°41'0 0.1
2017-May-18 10:30N 57°41' E 010°41'0 0.0
2017-May-18 09:57N 57°41' E 010°41'0 0.0
2017-May-18 09:30N 57°41' E 010°41'0 0.0
2017-May-18 08:54N 57°41' E 010°41'0 0.0
2017-May-18 08:24N 57°41' E 010°41'0 0.0
2017-May-18 07:36N 57°41' E 010°41'0 0.0
2017-May-18 07:30N 57°41' E 010°41'0 0.0
2017-May-18 07:00N 57°41' E 010°41'0 0.0
2017-May-18 06:29N 57°41' E 010°41'1 1.2
2017-May-18 06:00N 57°42' E 010°40'0 0.5
2017-May-18 05:30N 57°42' E 010°39'0 0.0
2017-May-18 04:42N 57°42' E 010°39'0 0.0
2017-May-18 04:30N 57°42' E 010°39'0 0.0
2017-May-18 04:00N 57°42' E 010°39'0 0.0
2017-May-18 03:30N 57°42' E 010°39'0 0.0
2017-May-18 02:50N 57°42' E 010°39'0 0.5
2017-May-18 02:31N 57°42' E 010°39'1 1.5
2017-May-18 01:58N 57°42' E 010°38'0 0.2
2017-May-18 01:10N 57°42' E 010°38'0 0.9
2017-May-18 00:59N 57°42' E 010°38'0 0.0
2017-May-17 23:56N 57°42' E 010°38'0 0.0
2017-May-17 23:29N 57°42' E 010°38'0 0.0
2017-May-17 22:56N 57°42' E 010°38'0 0.0
2017-May-17 22:28N 57°42' E 010°38'0 0.1
2017-May-17 22:00N 57°42' E 010°38'0 0.9
2017-May-17 21:30N 57°42' E 010°37'0 0.1
2017-May-17 20:58N 57°42' E 010°37'0 0.1
2017-May-17 20:13N 57°42' E 010°37'0 0.2
2017-May-17 19:52N 57°42' E 010°37'0 0.6
2017-May-17 19:08N 57°42' E 010°38'0 0.1
2017-May-17 18:53N 57°42' E 010°38'0 0.0
2017-May-17 18:26N 57°42' E 010°38'0 0.0
2017-May-17 17:53N 57°42' E 010°38'0 0.0
2017-May-17 17:29N 57°42' E 010°38'0 0.0
2017-May-17 16:59N 57°42' E 010°38'0 0.0
2017-May-17 16:30N 57°42' E 010°38'1 1.0
2017-May-17 16:00N 57°42' E 010°37'0 0.1
2017-May-17 15:01N 57°42' E 010°37'0 0.0
2017-May-17 14:52N 57°42' E 010°37'0 0.0
2017-May-17 14:28N 57°42' E 010°37'0 0.0
2017-May-17 13:28N 57°42' E 010°37'0 0.0
2017-May-17 12:55N 57°42' E 010°37'0 0.0
2017-May-17 12:22N 57°42' E 010°37'0 0.0
2017-May-17 11:58N 57°42' E 010°37'0 0.0
2017-May-17 11:28N 57°42' E 010°37'0 0.0
2017-May-17 10:55N 57°42' E 010°37'0 0.0
2017-May-17 10:19N 57°42' E 010°37'0 0.0
2017-May-17 09:58N 57°42' E 010°37'0 0.0
2017-May-17 09:25N 57°42' E 010°37'0 0.0
2017-May-17 08:55N 57°42' E 010°37'0 0.0
2017-May-17 08:19N 57°42' E 010°37'0 0.0
2017-May-17 07:58N 57°42' E 010°37'0 0.0
2017-May-17 07:22N 57°42' E 010°37'0 0.0
2017-May-17 06:52N 57°42' E 010°37'0 0.0
2017-May-17 06:28N 57°42' E 010°37'0 0.0
2017-May-17 05:40N 57°42' E 010°37'0 0.0
2017-May-17 05:28N 57°42' E 010°37'0 0.0
2017-May-17 04:58N 57°42' E 010°37'0 0.0
2017-May-17 04:22N 57°42' E 010°37'0 0.0
2017-May-17 03:58N 57°42' E 010°37'0 0.0
2017-May-17 03:28N 57°42' E 010°37'0 0.0
2017-May-17 02:52N 57°42' E 010°37'0 0.0
2017-May-17 02:25N 57°42' E 010°37'0 0.0
2017-May-17 01:07N 57°42' E 010°37'0 0.0
2017-May-17 00:58N 57°42' E 010°37'0 0.0
2017-May-17 00:16N 57°42' E 010°37'0 0.0
2017-May-16 23:58N 57°42' E 010°37'0 0.0
2017-May-16 23:28N 57°42' E 010°37'0 0.0
2017-May-16 22:49N 57°42' E 010°37'0 0.0
2017-May-16 22:28N 57°42' E 010°37'0 0.0
2017-May-16 21:58N 57°42' E 010°37'0 0.0
2017-May-16 21:28N 57°42' E 010°37'0 0.0
2017-May-16 20:58N 57°42' E 010°37'0 0.0
2017-May-16 20:28N 57°42' E 010°37'0 0.0
2017-May-16 19:58N 57°42' E 010°37'0 0.0
2017-May-16 19:25N 57°42' E 010°37'0 0.0
2017-May-16 18:58N 57°42' E 010°37'0 0.0
2017-May-16 18:13N 57°42' E 010°37'0 0.0
2017-May-16 17:58N 57°42' E 010°37'0 0.0
2017-May-16 17:28N 57°42' E 010°37'0 0.0
2017-May-16 16:55N 57°42' E 010°37'0 0.0
2017-May-16 16:16N 57°42' E 010°37'0 0.0
2017-May-16 15:58N 57°42' E 010°37'0 0.0
2017-May-16 15:25N 57°42' E 010°37'0 0.0
2017-May-16 14:58N 57°42' E 010°37'0 0.0
2017-May-16 13:58N 57°42' E 010°37'0 0.0
2017-May-16 13:25N 57°42' E 010°37'0 0.0
2017-May-16 12:46N 57°42' E 010°37'0 0.0
2017-May-16 12:28N 57°42' E 010°37'0 0.0
2017-May-16 11:52N 57°42' E 010°37'0 0.0
2017-May-16 11:25N 57°42' E 010°37'0 0.0
2017-May-16 10:49N 57°42' E 010°37'0 0.0
2017-May-16 10:04N 57°42' E 010°37'0 0.0
2017-May-16 09:58N 57°42' E 010°37'0 0.0
2017-May-16 09:22N 57°42' E 010°37'0 0.0
2017-May-16 08:58N 57°42' E 010°37'0 0.0
2017-May-16 08:22N 57°42' E 010°37'0 0.0
2017-May-16 07:58N 57°42' E 010°37'0 0.0
2017-May-16 07:04N 57°42' E 010°37'0 0.0
2017-May-16 06:43N 57°42' E 010°37'0 0.0
2017-May-16 06:25N 57°42' E 010°37'0 0.0
2017-May-16 05:52N 57°42' E 010°37'0 0.0
2017-May-16 05:19N 57°42' E 010°37'0 0.0
2017-May-16 04:58N 57°42' E 010°37'0 0.0
2017-May-16 04:16N 57°42' E 010°37'0 0.0
2017-May-16 03:55N 57°42' E 010°37'0 0.0
2017-May-16 03:04N 57°42' E 010°37'0 0.0
2017-May-16 02:13N 57°42' E 010°37'0 0.0
2017-May-16 01:55N 57°42' E 010°37'0 0.0
2017-May-16 01:07N 57°42' E 010°37'0 0.0
2017-May-16 00:37N 57°42' E 010°37'0 0.0
2017-May-15 23:49N 57°42' E 010°37'0 0.0
2017-May-15 23:25N 57°42' E 010°37'0 0.0
2017-May-15 22:58N 57°42' E 010°37'0 0.0
2017-May-15 21:52N 57°42' E 010°37'0 0.0
2017-May-15 20:52N 57°42' E 010°37'0 0.0
2017-May-15 20:28N 57°42' E 010°37'0 0.0
2017-May-15 18:34N 57°42' E 010°37'0 0.0
2017-May-15 18:25N 57°42' E 010°37'0 0.0
2017-May-15 17:52N 57°42' E 010°37'0 0.0
2017-May-15 17:22N 57°42' E 010°37'0 0.0
2017-May-15 16:55N 57°42' E 010°37'0 0.0
2017-May-15 16:16N 57°42' E 010°37'0 0.0
2017-May-15 15:55N 57°42' E 010°37'0 0.0
2017-May-15 15:16N 57°42' E 010°37'0 0.0
2017-May-15 14:43N 57°42' E 010°37'0 0.0
2017-May-15 13:40N 57°42' E 010°37'0 0.0
2017-May-15 13:25N 57°42' E 010°37'0 0.0
2017-May-15 12:40N 57°42' E 010°37'0 0.0
2017-May-15 12:04N 57°42' E 010°37'0 0.0
2017-May-15 11:52N 57°42' E 010°37'0 0.0
2017-May-15 11:28N 57°42' E 010°37'0 0.0
2017-May-15 10:58N 57°42' E 010°37'0 0.0
2017-May-15 10:16N 57°42' E 010°37'0 0.0
2017-May-15 09:49N 57°42' E 010°37'0 0.0
2017-May-15 09:22N 57°42' E 010°37'0 0.2
2017-May-15 09:01N 57°42' E 010°37'4 8.1
2017-May-15 08:30N 57°44' E 010°43'4 8.4
2017-May-15 08:00N 57°48' E 010°46'510.3
2017-May-15 07:30N 57°53' E 010°42'510.4
2017-May-15 07:00N 57°57' E 010°38'510.3
2017-May-15 06:29N 58°02' E 010°34'510.2
2017-May-15 06:00N 58°07' E 010°31'510.3
2017-May-15 05:30N 58°12' E 010°27'510.4
2017-May-15 05:00N 58°16' E 010°22'510.2
2017-May-15 04:30N 58°21' E 010°17'510.2
2017-May-15 04:00N 58°25' E 010°13'510.4
2017-May-15 03:30N 58°30' E 010°09'510.4
2017-May-15 03:00N 58°35' E 010°04'510.5
2017-May-15 02:30N 58°39' E 010°00'510.5
2017-May-15 02:00N 58°44' E 009°56'510.4
2017-May-15 01:30N 58°49' E 009°53'510.6
2017-May-15 01:00N 58°54' E 009°50'2 4.0
2017-May-15 00:30N 58°56' E 009°52'510.4
2017-May-15 00:00N 58°56' E 010°02'4 8.8
2017-May-14 23:30N 59°01' E 010°03'2 3.8
2017-May-14 22:59N 59°02' E 010°03'0 0.0
2017-May-14 22:29N 59°02' E 010°03'0 0.0
2017-May-14 21:59N 59°02' E 010°03'0 0.0
2017-May-14 21:29N 59°02' E 010°03'0 0.0
2017-May-14 20:59N 59°02' E 010°03'0 0.0
2017-May-14 20:26N 59°02' E 010°03'0 0.0
2017-May-14 19:59N 59°02' E 010°03'0 0.0
2017-May-14 19:29N 59°02' E 010°03'0 0.0
2017-May-14 18:59N 59°02' E 010°03'0 0.0
2017-May-14 18:29N 59°02' E 010°03'0 0.0
2017-May-14 17:59N 59°02' E 010°03'0 0.0
2017-May-14 17:29N 59°02' E 010°03'0 0.0
2017-May-14 16:59N 59°02' E 010°03'0 0.0
2017-May-14 16:29N 59°02' E 010°03'0 0.0
2017-May-14 15:59N 59°02' E 010°03'0 0.2
2017-May-14 15:30N 59°03' E 010°03'1 1.5
2017-May-14 15:00N 59°02' E 010°02'4 7.5
2017-May-14 14:30N 58°58' E 010°05'7 6.6
2017-May-14 13:31N 58°55' E 009°54'3 6.7
2017-May-14 13:00N 58°56' E 009°48'5 9.5
2017-May-14 12:30N 58°52' E 009°51'5 9.9
2017-May-14 12:00N 58°47' E 009°55'3 6.8
2017-May-14 11:30N 58°44' E 009°58'4 8.0
2017-May-14 11:00N 58°41' E 010°01'5 9.3
2017-May-14 10:30N 58°36' E 010°05'27 9.8
2017-May-14 07:46N 58°12' E 010°26'4 9.9
2017-May-14 07:22N 58°09' E 010°29'410.0
2017-May-14 06:59N 58°05' E 010°33'510.0
2017-May-14 06:29N 58°00' E 010°36'510.3
2017-May-14 06:00N 57°56' E 010°41'510.8
2017-May-14 05:30N 57°51' E 010°45'510.5
2017-May-14 05:00N 57°46' E 010°48'5 9.8
2017-May-14 04:30N 57°43' E 010°42'4 7.3
2017-May-14 04:01N 57°41' E 010°36'0 0.7
2017-May-14 03:30N 57°41' E 010°36'0 0.0
2017-May-14 03:00N 57°41' E 010°36'0 0.0
2017-May-14 02:27N 57°41' E 010°36'0 0.0
2017-May-14 01:57N 57°41' E 010°36'0 0.0
2017-May-14 00:48N 57°41' E 010°36'0 0.0
2017-May-14 00:27N 57°41' E 010°36'0 0.0
2017-May-14 00:00N 57°41' E 010°36'0 0.0
2017-May-13 23:30N 57°41' E 010°36'0 0.0
2017-May-13 23:00N 57°41' E 010°36'0 0.0
2017-May-13 21:51N 57°41' E 010°36'0 0.2
2017-May-13 21:30N 57°41' E 010°36'2 3.1
2017-May-13 21:01N 57°42' E 010°36'1 1.6
2017-May-13 20:30N 57°43' E 010°35'0 0.0
2017-May-13 19:58N 57°43' E 010°35'0 0.0
2017-May-13 19:28N 57°43' E 010°35'0 0.0
2017-May-13 18:43N 57°43' E 010°35'0 0.0
2017-May-13 18:28N 57°43' E 010°35'0 0.0
2017-May-13 17:58N 57°43' E 010°35'0 0.0
2017-May-13 17:16N 57°43' E 010°35'0 0.0
2017-May-13 16:58N 57°43' E 010°35'0 0.0
2017-May-13 16:22N 57°43' E 010°35'0 0.0
2017-May-13 15:52N 57°43' E 010°35'0 0.0
2017-May-13 15:25N 57°43' E 010°35'0 0.0
2017-May-13 14:52N 57°43' E 010°35'0 0.0
2017-May-13 14:22N 57°43' E 010°35'0 0.0
2017-May-13 13:19N 57°43' E 010°35'0 0.0
2017-May-13 12:58N 57°43' E 010°35'0 0.0
2017-May-13 12:10N 57°43' E 010°35'0 0.0
2017-May-13 11:46N 57°43' E 010°35'0 0.0
2017-May-13 11:25N 57°43' E 010°35'0 0.0
2017-May-13 10:52N 57°43' E 010°35'0 0.1
2017-May-13 10:30N 57°43' E 010°36'3 6.8
2017-May-13 10:00N 57°39' E 010°35'1 1.7
2017-May-13 09:27N 57°39' E 010°34'0 0.0
2017-May-13 08:48N 57°39' E 010°34'0 0.0
2017-May-13 08:27N 57°39' E 010°34'0 0.0
2017-May-13 07:48N 57°39' E 010°34'0 0.0
2017-May-13 07:18N 57°39' E 010°34'0 0.0
2017-May-13 06:54N 57°39' E 010°34'0 0.0
2017-May-13 06:21N 57°39' E 010°34'0 0.0
2017-May-13 06:00N 57°39' E 010°34'0 0.0
2017-May-13 05:27N 57°39' E 010°34'0 0.0
2017-May-13 05:00N 57°39' E 010°34'0 0.0
2017-May-13 04:18N 57°39' E 010°34'0 0.0
2017-May-13 04:00N 57°39' E 010°34'0 0.0
2017-May-13 03:30N 57°39' E 010°34'0 0.0
2017-May-13 03:00N 57°39' E 010°34'0 0.0
2017-May-13 02:27N 57°39' E 010°34'0 0.0
2017-May-13 01:45N 57°39' E 010°34'0 0.0
2017-May-13 01:30N 57°39' E 010°34'0 0.0
2017-May-13 00:51N 57°39' E 010°34'  

Dump ship's entire track history